createdAt,value
2018-06-20T00:01:01.126Z,3.40
2018-06-20T00:03:29.191Z,3.70
2018-06-20T00:05:57.257Z,3.80
2018-06-20T00:08:25.305Z,4.50
2018-06-20T00:10:53.354Z,3.87
2018-06-20T00:13:21.405Z,3.40
2018-06-20T00:15:49.481Z,4.20
2018-06-20T00:18:17.535Z,3.87
2018-06-20T00:20:45.578Z,3.13
2018-06-20T00:23:13.823Z,4.10
2018-06-20T00:25:41.870Z,3.20
2018-06-20T00:28:10.398Z,3.63
2018-06-20T00:30:38.292Z,4.07
2018-06-20T00:33:06.786Z,4.27
2018-06-20T00:35:34.924Z,3.57
2018-06-20T00:38:03.031Z,4.10
2018-06-20T00:40:31.077Z,4.20
2018-06-20T00:42:59.111Z,4.30
2018-06-20T00:45:27.040Z,3.90
2018-06-20T00:47:55.106Z,3.83
2018-06-20T00:50:23.152Z,3.97
2018-06-20T00:52:51.201Z,3.60
2018-06-20T00:56:23.308Z,3.83
2018-06-20T00:58:51.589Z,3.73
2018-06-20T01:01:20.129Z,3.37
2018-06-20T01:03:48.178Z,3.70
2018-06-20T01:06:16.237Z,3.70
2018-06-20T01:08:44.305Z,4.60
2018-06-20T01:11:12.677Z,4.00
2018-06-20T01:13:40.750Z,3.93
2018-06-20T01:16:08.798Z,3.83
2018-06-20T01:18:36.857Z,3.90
2018-06-20T01:21:04.897Z,4.27
2018-06-20T01:23:32.946Z,4.00
2018-06-20T01:26:00.998Z,3.73
2018-06-20T01:28:29.065Z,3.17
2018-06-20T01:30:57.099Z,4.60
2018-06-20T01:33:25.144Z,4.10
2018-06-20T01:35:53.195Z,4.47
2018-06-20T01:38:21.253Z,3.80
2018-06-20T01:40:49.301Z,4.63
2018-06-20T01:43:17.344Z,4.57
2018-06-20T01:45:45.390Z,4.60
2018-06-20T01:48:13.441Z,4.63
2018-06-20T01:50:41.520Z,4.80
2018-06-20T01:53:09.566Z,4.17
2018-06-20T01:55:37.616Z,4.03
2018-06-20T01:58:05.750Z,4.03
2018-06-20T02:00:33.805Z,4.60
2018-06-20T02:03:01.870Z,3.80
2018-06-20T02:05:29.920Z,5.00
2018-06-20T02:07:57.957Z,4.43
2018-06-20T02:10:25.994Z,5.10
2018-06-20T02:12:54.694Z,4.70
2018-06-20T02:15:22.765Z,4.03
2018-06-20T02:17:50.821Z,5.17
2018-06-20T02:20:18.893Z,5.70
2018-06-20T02:22:46.969Z,5.10
2018-06-20T02:25:15.014Z,5.97
2018-06-20T02:27:42.889Z,6.57
2018-06-20T02:30:10.935Z,6.77
2018-06-20T02:32:38.971Z,5.60
2018-06-20T02:35:07.486Z,6.10
2018-06-20T02:37:35.774Z,5.40
2018-06-20T02:40:03.905Z,5.60
2018-06-20T02:42:32.202Z,6.43
2018-06-20T02:45:00.169Z,5.43
2018-06-20T02:47:33.681Z,5.47
2018-06-20T02:50:01.789Z,6.13
2018-06-20T02:52:29.829Z,5.70
2018-06-20T02:54:58.342Z,5.70
2018-06-20T02:57:26.389Z,5.83
2018-06-20T02:59:54.442Z,5.93
2018-06-20T03:02:22.518Z,5.60
2018-06-20T03:04:50.585Z,5.50
2018-06-20T03:07:18.765Z,5.90
2018-06-20T03:09:46.818Z,4.97
2018-06-20T03:12:14.859Z,5.03
2018-06-20T03:14:42.846Z,4.90
2018-06-20T03:17:10.870Z,5.17
2018-06-20T03:19:38.913Z,5.27
2018-06-20T03:22:06.961Z,4.90
2018-06-20T03:24:35.018Z,4.80
2018-06-20T03:27:02.857Z,4.73
2018-06-20T03:29:30.897Z,4.97
2018-06-20T03:31:58.975Z,5.27
2018-06-20T03:34:27.340Z,4.57
2018-06-20T03:36:55.607Z,4.30
2018-06-20T03:39:23.671Z,5.47
2018-06-20T03:41:51.818Z,5.03
2018-06-20T03:44:19.887Z,5.23
2018-06-20T03:46:47.926Z,5.53
2018-06-20T03:49:15.819Z,5.33
2018-06-20T03:51:43.890Z,4.77
2018-06-20T03:54:11.954Z,5.00
2018-06-20T03:56:39.985Z,5.40
2018-06-20T03:59:08.057Z,5.50
2018-06-20T04:01:36.134Z,6.10
2018-06-20T04:04:04.133Z,5.47
2018-06-20T04:06:32.368Z,6.03
2018-06-20T04:09:00.410Z,4.40
2018-06-20T04:11:28.461Z,5.80
2018-06-20T04:13:56.528Z,6.23
2018-06-20T04:16:24.579Z,4.43
2018-06-20T04:18:52.617Z,4.70
2018-06-20T04:21:20.670Z,5.63
2018-06-20T04:23:48.754Z,5.00
2018-06-20T04:26:16.817Z,5.40
2018-06-20T04:28:45.024Z,5.57
2018-06-20T04:31:13.057Z,4.97
2018-06-20T04:33:41.122Z,5.40
2018-06-20T04:36:09.160Z,4.63
2018-06-20T04:38:37.230Z,5.03
2018-06-20T04:41:05.302Z,4.80
2018-06-20T04:43:33.357Z,8.37
2018-06-20T04:46:02.414Z,6.23
2018-06-20T04:48:30.492Z,6.03
2018-06-20T04:50:58.541Z,6.47
2018-06-20T04:53:26.601Z,10.47
2018-06-20T04:55:54.690Z,15.43
2018-06-20T04:58:22.746Z,47.80
2018-06-20T05:00:50.796Z,20.67
2018-06-20T05:03:18.840Z,13.73
2018-06-20T05:05:46.905Z,6.50
2018-06-20T05:08:14.936Z,8.43
2018-06-20T05:10:43.172Z,10.13
2018-06-20T05:13:17.550Z,6.57
2018-06-20T05:15:45.609Z,7.90
2018-06-20T05:18:13.730Z,7.23
2018-06-20T05:20:41.816Z,6.20
2018-06-20T05:23:09.858Z,5.83
2018-06-20T05:25:37.938Z,7.07
2018-06-20T05:28:05.986Z,6.00
2018-06-20T05:30:34.066Z,6.80
2018-06-20T05:33:02.098Z,7.13
2018-06-20T05:35:29.997Z,6.30
2018-06-20T05:37:58.090Z,6.50
2018-06-20T05:40:26.209Z,6.50
2018-06-20T05:42:53.996Z,9.60
2018-06-20T05:45:22.717Z,7.23
2018-06-20T05:47:50.796Z,5.73
2018-06-20T05:50:18.949Z,9.13
2018-06-20T05:52:47.006Z,6.60
2018-06-20T05:55:15.069Z,6.60
2018-06-20T05:57:43.257Z,9.03
2018-06-20T06:00:11.301Z,8.10
2018-06-20T06:02:39.337Z,7.60
2018-06-20T06:05:07.441Z,7.50
2018-06-20T06:07:35.498Z,9.03
2018-06-20T06:10:06.845Z,8.70
2018-06-20T06:12:34.886Z,8.77
2018-06-20T06:15:02.933Z,7.83
2018-06-20T06:17:30.761Z,8.67
2018-06-20T06:19:58.837Z,8.90
2018-06-20T06:22:26.922Z,13.30
2018-06-20T06:24:54.967Z,12.97
2018-06-20T06:27:23.022Z,8.37
2018-06-20T06:29:51.294Z,10.40
2018-06-20T06:32:19.331Z,12.03
2018-06-20T06:34:47.377Z,9.03
2018-06-20T06:37:15.449Z,14.20
2018-06-20T06:39:43.497Z,13.07
2018-06-20T06:42:11.537Z,15.80
2018-06-20T06:44:39.593Z,17.20
2018-06-20T06:47:07.634Z,18.90
2018-06-20T06:49:35.688Z,17.60
2018-06-20T06:52:03.722Z,18.03
2018-06-20T06:54:31.790Z,19.67
2018-06-20T06:56:59.837Z,18.77
2018-06-20T06:59:27.766Z,19.10
2018-06-20T07:01:55.815Z,21.10
2018-06-20T07:04:23.879Z,20.73
2018-06-20T07:06:51.934Z,21.20
2018-06-20T07:09:20.095Z,22.20
2018-06-20T07:11:48.089Z,19.00
2018-06-20T07:14:16.125Z,18.60
2018-06-20T07:16:44.305Z,19.33
2018-06-20T07:19:12.341Z,21.30
2018-06-20T07:21:40.373Z,20.80
2018-06-20T07:24:08.470Z,20.27
2018-06-20T07:26:36.462Z,21.67
2018-06-20T07:29:04.597Z,19.67
2018-06-20T07:31:32.638Z,21.57
2018-06-20T07:34:00.690Z,20.40
2018-06-20T07:36:28.749Z,19.37
2018-06-20T07:38:56.791Z,17.17
2018-06-20T07:41:24.845Z,19.23
2018-06-20T07:43:52.924Z,17.70
2018-06-20T07:46:20.963Z,15.50
2018-06-20T07:48:49.011Z,18.50
2018-06-20T07:51:16.968Z,16.17
2018-06-20T07:53:45.008Z,16.70
2018-06-20T07:56:13.081Z,18.60
2018-06-20T07:58:47.161Z,17.00
2018-06-20T08:01:32.343Z,17.10
2018-06-20T08:04:05.891Z,14.77
2018-06-20T08:06:39.439Z,15.77
2018-06-20T08:09:12.939Z,16.83
2018-06-20T08:11:46.521Z,16.13
2018-06-20T08:14:19.938Z,15.60
2018-06-20T08:16:52.234Z,16.40
2018-06-20T08:19:25.719Z,14.07
2018-06-20T08:21:53.820Z,16.07
2018-06-20T08:24:21.937Z,14.57
2018-06-20T08:26:49.993Z,13.77
2018-06-20T08:29:18.037Z,14.50
2018-06-20T08:31:46.124Z,15.70
2018-06-20T08:34:14.777Z,14.53
2018-06-20T08:36:42.869Z,15.83
2018-06-20T08:39:10.929Z,15.57
2018-06-20T08:41:38.981Z,15.63
2018-06-20T08:44:07.047Z,14.80
2018-06-20T08:46:35.133Z,13.63
2018-06-20T08:49:03.179Z,12.83
2018-06-20T08:51:31.217Z,13.80
2018-06-20T08:53:59.419Z,13.13
2018-06-20T08:56:27.452Z,14.73
2018-06-20T08:58:55.482Z,13.57
2018-06-20T09:01:23.663Z,14.60
2018-06-20T09:03:55.988Z,15.20
2018-06-20T09:06:29.521Z,15.43
2018-06-20T09:09:03.061Z,18.37
2018-06-20T09:11:36.646Z,15.90
2018-06-20T09:14:06.841Z,16.40
2018-06-20T09:16:40.341Z,17.90
2018-06-20T09:19:13.781Z,17.70
2018-06-20T09:21:41.830Z,17.30
2018-06-20T09:24:09.893Z,17.37
2018-06-20T09:26:37.949Z,18.00
2018-06-20T09:29:06.062Z,18.37
2018-06-20T09:31:35.070Z,18.07
2018-06-20T09:34:03.277Z,20.83
2018-06-20T09:36:31.377Z,19.90
2018-06-20T09:38:59.849Z,20.27
2018-06-20T09:41:28.730Z,21.07
2018-06-20T09:43:56.782Z,19.93
2018-06-20T09:46:24.858Z,21.43
2018-06-20T09:48:52.913Z,20.10
2018-06-20T09:51:21.894Z,21.67
2018-06-20T09:53:49.816Z,18.80
2018-06-20T09:56:17.879Z,19.57
2018-06-20T09:58:45.937Z,18.73
2018-06-20T10:01:19.410Z,18.43
2018-06-20T10:03:52.926Z,18.43
2018-06-20T10:06:26.532Z,19.70
2018-06-20T10:08:59.998Z,19.70
2018-06-20T10:11:33.509Z,17.93
2018-06-20T10:14:02.533Z,18.70
2018-06-20T10:16:31.214Z,18.90
2018-06-20T10:18:59.271Z,15.63
2018-06-20T10:21:27.400Z,18.10
2018-06-20T10:23:55.370Z,16.90
2018-06-20T10:26:24.069Z,16.33
2018-06-20T10:28:52.333Z,17.63
2018-06-20T10:31:20.437Z,16.93
2018-06-20T10:33:48.612Z,16.33
2018-06-20T10:36:16.679Z,16.43
2018-06-20T10:38:44.941Z,17.07
2018-06-20T10:41:13.001Z,16.70
2018-06-20T10:43:41.078Z,17.37
2018-06-20T10:46:14.666Z,16.47
2018-06-20T10:48:42.667Z,17.07
2018-06-20T10:51:10.734Z,17.63
2018-06-20T10:53:38.790Z,17.60
2018-06-20T10:56:06.863Z,20.83
2018-06-20T10:58:40.274Z,19.57
2018-06-20T11:01:13.758Z,17.80
2018-06-20T11:03:47.898Z,22.97
2018-06-20T11:06:21.296Z,18.00
2018-06-20T11:08:54.662Z,18.90
2018-06-20T11:11:28.090Z,18.50
2018-06-20T11:13:56.160Z,20.10
2018-06-20T11:16:24.330Z,20.20
2018-06-20T11:18:54.357Z,20.93
2018-06-20T11:21:22.405Z,20.77
2018-06-20T11:23:50.505Z,20.60
2018-06-20T11:26:18.549Z,20.50
2018-06-20T11:28:46.616Z,20.60
2018-06-20T11:31:14.695Z,19.07
2018-06-20T11:33:42.721Z,18.83
2018-06-20T11:36:10.761Z,21.90
2018-06-20T11:38:38.841Z,20.17
2018-06-20T11:41:06.900Z,19.10
2018-06-20T11:43:35.289Z,20.50
2018-06-20T11:46:08.887Z,20.30
2018-06-20T11:48:36.960Z,18.30
2018-06-20T11:51:06.046Z,20.07
2018-06-20T11:53:34.159Z,19.50
2018-06-20T11:56:02.271Z,20.57
2018-06-20T11:58:35.596Z,18.27
2018-06-20T12:01:09.031Z,20.33
2018-06-20T12:03:42.541Z,20.97
2018-06-20T12:06:16.122Z,20.07
2018-06-20T12:08:49.634Z,20.53
2018-06-20T12:11:23.057Z,19.17
2018-06-20T12:13:56.545Z,20.23
2018-06-20T12:16:26.670Z,18.40
2018-06-20T12:19:00.138Z,21.97
2018-06-20T12:21:33.561Z,21.77
2018-06-20T12:24:07.147Z,20.87
2018-06-20T12:26:40.620Z,21.07
2018-06-20T12:29:14.045Z,21.27
2018-06-20T12:31:47.975Z,19.93
2018-06-20T12:34:21.334Z,22.77
2018-06-20T12:36:54.818Z,18.40
2018-06-20T12:39:22.217Z,17.50
2018-06-20T12:41:55.629Z,19.43
2018-06-20T12:44:30.039Z,16.73
2018-06-20T12:47:05.814Z,16.13
2018-06-20T12:49:36.071Z,15.37
2018-06-20T12:52:04.695Z,15.33
2018-06-20T12:54:33.183Z,15.53
2018-06-20T12:57:01.253Z,13.50
2018-06-20T12:59:29.309Z,10.37
2018-06-20T13:01:57.445Z,13.10
2018-06-20T13:04:25.521Z,14.30
2018-06-20T13:06:53.579Z,16.40
2018-06-20T13:09:21.689Z,16.23
2018-06-20T13:11:49.790Z,15.30
2018-06-20T13:14:17.864Z,16.57
2018-06-20T13:16:45.929Z,16.20
2018-06-20T13:19:13.981Z,15.77
2018-06-20T13:21:42.150Z,15.07
2018-06-20T13:24:10.298Z,15.90
2018-06-20T13:26:38.389Z,11.80
2018-06-20T13:29:06.475Z,10.67
2018-06-20T13:31:39.995Z,9.30
2018-06-20T13:34:13.434Z,9.63
2018-06-20T13:36:46.869Z,8.93
2018-06-20T13:39:20.327Z,9.83
2018-06-20T13:41:53.869Z,9.03
2018-06-20T13:44:23.078Z,7.73
2018-06-20T13:46:56.529Z,6.77
2018-06-20T13:49:24.773Z,6.87
2018-06-20T13:51:53.759Z,6.67
2018-06-20T13:54:21.967Z,5.70
2018-06-20T13:56:50.377Z,5.90
2018-06-20T13:59:18.503Z,5.43
2018-06-20T14:01:46.506Z,5.77
2018-06-20T14:04:14.704Z,5.80
2018-06-20T14:06:42.970Z,5.80
2018-06-20T14:09:11.863Z,4.77
2018-06-20T14:11:40.404Z,5.33
2018-06-20T14:14:08.486Z,4.43
2018-06-20T14:16:36.533Z,4.90
2018-06-20T14:19:04.722Z,5.50
2018-06-20T14:21:37.130Z,5.60
2018-06-20T14:24:06.534Z,4.33
2018-06-20T14:26:35.106Z,4.97
2018-06-20T14:29:03.353Z,4.40
2018-06-20T14:31:36.848Z,5.70
2018-06-20T14:34:10.459Z,4.87
2018-06-20T14:36:44.017Z,4.00
2018-06-20T14:39:17.503Z,5.00
2018-06-20T14:41:50.913Z,5.53
2018-06-20T14:44:18.860Z,4.60
2018-06-20T14:46:46.915Z,5.30
2018-06-20T14:49:14.990Z,5.67
2018-06-20T14:51:43.143Z,4.33
2018-06-20T14:54:11.181Z,6.23
2018-06-20T14:56:39.266Z,5.10
2018-06-20T14:59:07.394Z,5.07
2018-06-20T15:01:35.474Z,5.43
2018-06-20T15:04:03.543Z,4.53
2018-06-20T15:06:31.581Z,5.03
2018-06-20T15:08:59.649Z,4.77
2018-06-20T15:11:27.699Z,4.67
2018-06-20T15:13:55.761Z,4.87
2018-06-20T15:16:29.156Z,4.90
2018-06-20T15:18:57.228Z,4.10
2018-06-20T15:21:25.327Z,4.60
2018-06-20T15:23:53.422Z,4.47
2018-06-20T15:26:26.833Z,3.93
2018-06-20T15:29:00.129Z,4.27
2018-06-20T15:31:33.678Z,3.60
2018-06-20T15:34:07.291Z,3.90
2018-06-20T15:36:40.706Z,3.93
2018-06-20T15:39:08.981Z,3.70
2018-06-20T15:41:37.059Z,3.77
2018-06-20T15:44:05.748Z,3.77
2018-06-20T15:46:33.824Z,3.47
2018-06-20T15:49:02.675Z,3.10
2018-06-20T15:51:30.734Z,3.70
2018-06-20T15:53:58.934Z,3.93
2018-06-20T15:56:27.027Z,3.00
2018-06-20T15:58:55.104Z,3.70
2018-06-20T16:01:23.208Z,4.70
2018-06-20T16:03:51.287Z,4.50
2018-06-20T16:06:19.379Z,4.20
2018-06-20T16:08:52.693Z,4.40
2018-06-20T16:11:20.745Z,3.40
2018-06-20T16:13:48.793Z,4.50
2018-06-20T16:16:16.853Z,3.80
2018-06-20T16:18:50.411Z,4.13
2018-06-20T16:23:26.487Z,3.73
2018-06-20T16:26:00.163Z,3.10
2018-06-20T16:28:33.753Z,3.33
2018-06-20T16:31:01.822Z,3.43
2018-06-20T16:33:29.890Z,3.40
2018-06-20T16:35:57.934Z,2.70
2018-06-20T16:38:25.984Z,3.40
2018-06-20T16:40:54.046Z,2.70
2018-06-20T16:43:22.341Z,3.13
2018-06-20T16:45:50.402Z,3.33
2018-06-20T16:48:18.262Z,2.77
2018-06-20T16:50:46.309Z,3.73
2018-06-20T16:53:14.349Z,2.80
2018-06-20T16:55:42.405Z,3.00
2018-06-20T16:58:10.510Z,3.47
2018-06-20T17:00:38.546Z,2.90
2018-06-20T17:03:06.850Z,3.10
2018-06-20T17:05:34.930Z,3.13
2018-06-20T17:08:03.073Z,3.50
2018-06-20T17:10:31.142Z,3.20
2018-06-20T17:13:04.680Z,2.40
2018-06-20T17:15:38.085Z,2.60
2018-06-20T17:18:11.425Z,2.93
2018-06-20T17:20:44.881Z,2.90
2018-06-20T17:23:18.359Z,3.37
2018-06-20T17:25:46.393Z,2.90
2018-06-20T17:28:14.477Z,2.80
2018-06-20T17:30:42.548Z,2.53
2018-06-20T17:33:10.633Z,2.57
2018-06-20T17:35:38.687Z,3.00
2018-06-20T17:38:06.777Z,3.07
2018-06-20T17:40:34.969Z,2.90
2018-06-20T17:43:03.133Z,3.33
2018-06-20T17:45:30.997Z,3.33
2018-06-20T17:47:59.058Z,3.33
2018-06-20T17:50:27.165Z,3.53
2018-06-20T17:52:55.218Z,3.23
2018-06-20T17:55:23.310Z,3.43
2018-06-20T17:57:51.520Z,4.60
2018-06-20T18:00:19.567Z,3.80
2018-06-20T18:02:47.642Z,3.40
2018-06-20T18:05:21.073Z,3.87
2018-06-20T18:07:54.493Z,3.90
2018-06-20T18:10:27.949Z,3.57
2018-06-20T18:13:00.263Z,3.30
2018-06-20T18:15:33.677Z,3.63
2018-06-20T18:18:01.749Z,4.47
2018-06-20T18:20:29.797Z,3.80
2018-06-20T18:22:57.865Z,3.70
2018-06-20T18:25:26.130Z,4.10
2018-06-20T18:27:54.245Z,3.47
2018-06-20T18:30:22.358Z,3.70
2018-06-20T18:32:50.409Z,3.87
2018-06-20T18:35:18.459Z,3.63
2018-06-20T18:37:46.507Z,4.13
2018-06-20T18:40:14.549Z,4.50
2018-06-20T18:42:42.636Z,3.90
2018-06-20T18:45:10.691Z,4.20
2018-06-20T18:47:44.272Z,4.43
2018-06-20T18:50:12.326Z,4.60
2018-06-20T18:52:40.370Z,4.53
2018-06-20T18:55:08.442Z,4.10
2018-06-20T18:57:41.809Z,5.90
2018-06-20T19:00:15.378Z,7.30
2018-06-20T19:02:48.942Z,10.80
2018-06-20T19:05:22.393Z,11.77
2018-06-20T19:07:55.938Z,12.87
2018-06-20T19:10:24.024Z,13.90
2018-06-20T19:12:52.165Z,16.00
2018-06-20T19:15:20.213Z,16.33
2018-06-20T19:17:48.281Z,16.07
2018-06-20T19:20:16.335Z,16.83
2018-06-20T19:22:44.554Z,24.43
2018-06-20T19:25:12.641Z,77.50
2018-06-20T19:27:40.613Z,24.80
2018-06-20T19:30:08.702Z,25.03
2018-06-20T19:32:36.738Z,26.50
2018-06-20T19:35:04.825Z,27.30
2018-06-20T19:37:32.879Z,27.20
2018-06-20T19:40:00.962Z,28.17
2018-06-20T19:42:29.021Z,29.00
2018-06-20T19:44:57.140Z,28.93
2018-06-20T19:47:25.184Z,30.77
2018-06-20T19:49:53.283Z,27.90
2018-06-20T19:52:21.362Z,26.40
2018-06-20T19:54:49.428Z,28.60
2018-06-20T19:57:17.540Z,24.70
2018-06-20T19:59:45.586Z,27.63
2018-06-20T20:02:13.663Z,28.27
2018-06-20T20:04:42.609Z,27.30
2018-06-20T20:07:11.612Z,28.20
2018-06-20T20:09:39.673Z,26.80
2018-06-20T20:12:08.273Z,29.30
2018-06-20T20:14:36.382Z,29.93
2018-06-20T20:17:04.842Z,29.30
2018-06-20T20:19:32.846Z,28.23
2018-06-20T20:22:00.888Z,27.60
2018-06-20T20:24:29.311Z,30.17
2018-06-20T20:26:57.414Z,31.10
2018-06-20T20:29:25.720Z,27.47
2018-06-20T20:31:53.937Z,26.80
2018-06-20T20:34:22.621Z,26.50
2018-06-20T20:36:50.697Z,27.27
2018-06-20T20:39:18.741Z,26.00
2018-06-20T20:41:46.802Z,23.80
2018-06-20T20:44:15.118Z,26.60
2018-06-20T20:46:43.194Z,25.43
2018-06-20T20:49:11.246Z,26.40
2018-06-20T20:51:39.301Z,24.70
2018-06-20T20:54:07.353Z,25.90
2018-06-20T20:56:36.006Z,24.90
2018-06-20T20:59:04.081Z,25.37
2018-06-20T21:01:32.414Z,24.07
2018-06-20T21:04:01.222Z,27.13
2018-06-20T21:06:29.385Z,25.57
2018-06-20T21:08:57.439Z,22.20
2018-06-20T21:11:29.198Z,25.00
2018-06-20T21:13:57.253Z,26.10
2018-06-20T21:16:25.343Z,22.87
2018-06-20T21:18:53.414Z,22.10
2018-06-20T21:21:21.457Z,23.33
2018-06-20T21:23:49.769Z,23.30
2018-06-20T21:26:17.830Z,23.97
2018-06-20T21:28:46.262Z,22.40
2018-06-20T21:31:14.358Z,22.20
2018-06-20T21:33:42.407Z,22.10
2018-06-20T21:36:10.486Z,21.50
2018-06-20T21:38:38.549Z,23.07
2018-06-20T21:41:06.846Z,24.60
2018-06-20T21:43:34.894Z,21.20
2018-06-20T21:46:02.970Z,20.17
2018-06-20T21:48:31.064Z,23.93
2018-06-20T21:50:59.093Z,22.13
2018-06-20T21:53:27.150Z,23.87
2018-06-20T21:55:55.217Z,22.97
2018-06-20T21:58:23.302Z,21.83
2018-06-20T22:00:51.350Z,23.47
2018-06-20T22:03:19.426Z,22.80
2018-06-20T22:05:47.497Z,22.00
2018-06-20T22:08:15.378Z,22.63
2018-06-20T22:10:43.451Z,22.43
2018-06-20T22:13:11.506Z,22.20
2018-06-20T22:15:39.541Z,22.83
2018-06-20T22:18:07.626Z,24.10
2018-06-20T22:20:35.676Z,23.87
2018-06-20T22:23:03.730Z,23.87
2018-06-20T22:25:32.247Z,21.10
2018-06-20T22:28:01.000Z,23.77
2018-06-20T22:30:29.209Z,24.77
2018-06-20T22:32:57.248Z,24.27
2018-06-20T22:35:25.297Z,22.20
2018-06-20T22:37:53.353Z,23.77
2018-06-20T22:40:21.466Z,23.50
2018-06-20T22:42:49.708Z,25.07
2018-06-20T22:45:17.754Z,24.57
2018-06-20T22:47:45.803Z,23.87
2018-06-20T22:50:13.854Z,25.10
2018-06-20T22:52:41.915Z,26.93
2018-06-20T22:55:09.973Z,23.53
2018-06-20T22:57:38.018Z,22.70
2018-06-20T23:00:06.466Z,25.23
2018-06-20T23:02:34.505Z,22.80
2018-06-20T23:05:03.178Z,21.93
2018-06-20T23:07:31.234Z,23.30
2018-06-20T23:09:59.312Z,23.53
2018-06-20T23:12:27.361Z,25.90
2018-06-20T23:14:55.432Z,25.97
2018-06-20T23:17:23.497Z,25.00
2018-06-20T23:19:51.546Z,24.77
2018-06-20T23:22:19.615Z,23.20
2018-06-20T23:24:47.849Z,26.90
2018-06-20T23:27:15.923Z,24.13
2018-06-20T23:29:43.967Z,24.90
2018-06-20T23:32:12.013Z,24.80
2018-06-20T23:34:40.062Z,24.03
2018-06-20T23:37:08.139Z,25.33
2018-06-20T23:39:36.185Z,24.83
2018-06-20T23:42:04.222Z,23.73
2018-06-20T23:44:32.310Z,26.27
2018-06-20T23:47:00.389Z,25.67
2018-06-20T23:49:28.479Z,26.47
2018-06-20T23:51:56.513Z,26.70
2018-06-20T23:54:24.573Z,25.47
2018-06-20T23:56:52.609Z,25.63
2018-06-20T23:59:20.743Z,24.20
